Alan P Hall — WDG4692 — position and weather

sailwx.info

Track history (hours):
 
Tides and Currents Weather Stations Pressure Air Temp Water Temp Dewpoint Dewpoint Depression Visibility Wind Speed Wind Dir Waves Ship Positions

Alan P Hall

Owner: Amherst Madison,Inc 2 Port Amherst Drive Charleston,WV 25306, Charleston, WV. More information available from US FCC via Universal Licensing System and Coast Guard Vessel Documentation Center.

Last reported at 2015-Apr-05 18:06 UTC. Time now 2015-Apr-22 03:51 UTC.
Position N 38°59' W 081°56'.
Warning: this ship's position is 16 days out of date.

Length 51 m; draft 2.5 m.

Type: Towing. MMSI: 367539160.

Date/timePositionNaut miles runAvg speedWind from/ knotsBaromVisibWave heightAir tempDewpointWater temp
2015-Apr-05 18:06N 38°59' W 081°56'1 2.3
2015-Apr-05 17:32N 38°60' W 081°58'7 7.0
2015-Apr-05 16:29N 38°57' W 082°06'0 0.0
2015-Apr-05 15:28N 38°57' W 082°06'5 5.3
2015-Apr-05 14:31N 39°01' W 082°03'5 5.1
2015-Apr-05 13:32N 38°57' W 082°06'0 0.0
2015-Apr-05 12:32N 38°57' W 082°06'3 2.6
2015-Apr-05 11:33N 38°54' W 082°08'5 5.1
2015-Apr-05 10:31N 38°49' W 082°10'0 0.1
2015-Apr-05 09:33N 38°49' W 082°10'2 1.7
2015-Apr-05 08:31N 38°50' W 082°08'0 0.3
2015-Apr-05 07:31N 38°50' W 082°08'2 2.2
2015-Apr-05 06:32N 38°52' W 082°08'0 0.0
2015-Apr-05 05:29N 38°52' W 082°08'4 3.7
2015-Apr-05 04:31N 38°49' W 082°11'3 3.1
2015-Apr-05 03:27N 38°46' W 082°13'0 0.0
2015-Apr-05 02:28N 38°46' W 082°13'5 0.1
2015-Apr-03 09:28N 38°50' W 082°08'0 0.0
2015-Apr-03 08:31N 38°50' W 082°08'0 0.0
2015-Apr-03 07:14N 38°50' W 082°08'0 0.0
2015-Apr-03 06:20N 38°50' W 082°08'0 0.0
2015-Apr-03 05:30N 38°50' W 082°08'0 0.0
2015-Apr-03 04:33N 38°50' W 082°08'0 0.0
2015-Apr-03 03:29N 38°50' W 082°08'0 0.0
2015-Apr-03 02:23N 38°50' W 082°08'3 3.3
2015-Apr-03 01:31N 38°53' W 082°09'7 6.3
2015-Apr-03 00:27N 38°59' W 082°05'5 4.3
2015-Apr-02 23:18N 38°60' W 081°58'  
Track history (hours):
 
Tides and Currents Weather Stations Pressure Air Temp Water Temp Dewpoint Dewpoint Depression Visibility Wind Speed Wind Dir Waves Ship Positions

Alan P Hall

Owner: Amherst Madison,Inc 2 Port Amherst Drive Charleston,WV 25306, Charleston, WV. More information available from US FCC via Universal Licensing System and Coast Guard Vessel Documentation Center.

Last reported at 2015-Apr-05 18:06 UTC. Time now 2015-Apr-22 03:51 UTC.
Position N 38°59' W 081°56'.
Warning: this ship's position is 16 days out of date.

Length 51 m; draft 2.5 m.

Type: Towing. MMSI: 367539160.

Date/timePositionNaut miles runAvg speedWind from/ knotsBaromVisibWave heightAir tempDewpointWater temp
2015-Apr-05 18:06N 38°59' W 081°56'1 2.3
2015-Apr-05 17:32N 38°60' W 081°58'7 7.0
2015-Apr-05 16:29N 38°57' W 082°06'0 0.0
2015-Apr-05 15:28N 38°57' W 082°06'5 5.3
2015-Apr-05 14:31N 39°01' W 082°03'5 5.1
2015-Apr-05 13:32N 38°57' W 082°06'0 0.0
2015-Apr-05 12:32N 38°57' W 082°06'3 2.6
2015-Apr-05 11:33N 38°54' W 082°08'5 5.1
2015-Apr-05 10:31N 38°49' W 082°10'0 0.1
2015-Apr-05 09:33N 38°49' W 082°10'2 1.7
2015-Apr-05 08:31N 38°50' W 082°08'0 0.3
2015-Apr-05 07:31N 38°50' W 082°08'2 2.2
2015-Apr-05 06:32N 38°52' W 082°08'0 0.0
2015-Apr-05 05:29N 38°52' W 082°08'4 3.7
2015-Apr-05 04:31N 38°49' W 082°11'3 3.1
2015-Apr-05 03:27N 38°46' W 082°13'0 0.0
2015-Apr-05 02:28N 38°46' W 082°13'5 0.1
2015-Apr-03 09:28N 38°50' W 082°08'0 0.0
2015-Apr-03 08:31N 38°50' W 082°08'0 0.0
2015-Apr-03 07:14N 38°50' W 082°08'0 0.0
2015-Apr-03 06:20N 38°50' W 082°08'0 0.0
2015-Apr-03 05:30N 38°50' W 082°08'0 0.0
2015-Apr-03 04:33N 38°50' W 082°08'0 0.0
2015-Apr-03 03:29N 38°50' W 082°08'0 0.0
2015-Apr-03 02:23N 38°50' W 082°08'3 3.3
2015-Apr-03 01:31N 38°53' W 082°09'7 6.3
2015-Apr-03 00:27N 38°59' W 082°05'5 4.3
2015-Apr-02 23:18N 38°60' W 081°58'  

Dump ship's entire track history